Station Historical Data
Daily Summary for April 5, 2017 Units:  Both    English   Metric
« Previous Day
Next Day »
Daily Weekly Monthly Yearly Custom
  High: Low: Average:
Temperature: 53.5 °F /  11.9 °C 39.6 °F /  4.2 °C 45 °F /  7.2 °C
Dew Point: 41.9 °F /  5.5 °C 35.4 °F /  1.9 °C 37.8 °F /  3.2 °C
Humidity: 88% 63% 76%
Wind Speed: 14.0mph /  22.5km/h - 5.2mph /  8.4km/h
Wind Gust: 21.0mph /  33.8km/h - -
Wind- - SSE
Pressure: 30.01 in /  1016.1 hPa 29.67 in /  1004.6 hPa -
Precipitation: 0.00 in /  0 mm    
Historical Graphs
 
 
Tabular Data for April 5, 2017
Time Temperature Dew Point Pressure Wind Wind Speed Wind Gust Humidity Rainfall Rate (Hourly)
00:04 40.4 °F /  4.7 °C 36.8 °F /  2.7 °C 29.76in /  1007.7hPa West 11.0mph /  17.7km/h 16.0mph /  25.7km/h 87% 0.00in /  0mm
00:09 40.3 °F /  4.6 °C 37.0 °F /  2.8 °C 29.76in /  1007.7hPa WSW 8.0mph /  12.9km/h 16.0mph /  25.7km/h 88% 0.00in /  0mm
00:14 40.3 °F /  4.6 °C 37.0 °F /  2.8 °C 29.77in /  1008hPa WSW 8.0mph /  12.9km/h 17.0mph /  27.4km/h 88% 0.00in /  0mm
00:19 40.3 °F /  4.6 °C 37.0 °F /  2.8 °C 29.77in /  1008hPa WSW 9.0mph /  14.5km/h 17.0mph /  27.4km/h 88% 0.00in /  0mm
00:24 40.3 °F /  4.6 °C 37.0 °F /  2.8 °C 29.77in /  1008hPa WSW 6.0mph /  9.7km/h 15.0mph /  24.1km/h 88% 0.00in /  0mm
00:29 40.2 °F /  4.6 °C 36.9 °F /  2.7 °C 29.77in /  1008hPa WSW 10.0mph /  16.1km/h 19.0mph /  30.6km/h 88% 0.00in /  0mm
00:34 40.2 °F /  4.6 °C 36.9 °F /  2.7 °C 29.77in /  1008hPa SW 7.0mph /  11.3km/h 14.0mph /  22.5km/h 88% 0.00in /  0mm
00:39 40.1 °F /  4.5 °C 36.8 °F /  2.7 °C 29.78in /  1008.4hPa WSW 8.0mph /  12.9km/h 14.0mph /  22.5km/h 88% 0.00in /  0mm
00:44 40.1 °F /  4.5 °C 36.8 °F /  2.7 °C 29.78in /  1008.4hPa WSW 8.0mph /  12.9km/h 14.0mph /  22.5km/h 88% 0.00in /  0mm
00:49 40.0 °F /  4.4 °C 36.7 °F /  2.6 °C 29.79in /  1008.7hPa WSW 7.0mph /  11.3km/h 14.0mph /  22.5km/h 88% 0.00in /  0mm
00:54 40.1 °F /  4.5 °C 36.8 °F /  2.7 °C 29.79in /  1008.7hPa WSW 7.0mph /  11.3km/h 14.0mph /  22.5km/h 88% 0.00in /  0mm
00:59 40.2 °F /  4.6 °C 36.6 °F /  2.6 °C 29.79in /  1008.7hPa WSW 7.0mph /  11.3km/h 14.0mph /  22.5km/h 87% 0.00in /  0mm
01:04 40.3 °F /  4.6 °C 36.4 °F /  2.4 °C 29.80in /  1009hPa WSW 6.0mph /  9.7km/h 11.0mph /  17.7km/h 86% 0.00in /  0mm
01:09 40.5 °F /  4.7 °C 36.6 °F /  2.6 °C 29.80in /  1009hPa West 6.0mph /  9.7km/h 9.0mph /  14.5km/h 86% 0.00in /  0mm
01:14 40.5 °F /  4.7 °C 36.3 °F /  2.4 °C 29.80in /  1009hPa WSW 5.0mph /  8km/h 11.0mph /  17.7km/h 85% 0.00in /  0mm
01:19 40.6 °F /  4.8 °C 36.4 °F /  2.4 °C 29.81in /  1009.4hPa WSW 8.0mph /  12.9km/h 10.0mph /  16.1km/h 85% 0.00in /  0mm
01:24 40.8 °F /  4.9 °C 36.0 °F /  2.2 °C 29.81in /  1009.4hPa West 4.0mph /  6.4km/h 12.0mph /  19.3km/h 83% 0.00in /  0mm
01:29 41.0 °F /  5 °C 35.9 °F /  2.2 °C 29.81in /  1009.4hPa West 7.0mph /  11.3km/h 10.0mph /  16.1km/h 82% 0.00in /  0mm
01:34 41.2 °F /  5.1 °C 35.8 °F /  2.1 °C 29.82in /  1009.7hPa West 14.0mph /  22.5km/h 16.0mph /  25.7km/h 81% 0.00in /  0mm
01:39 41.3 °F /  5.2 °C 35.6 °F /  2 °C 29.82in /  1009.7hPa WSW 7.0mph /  11.3km/h 16.0mph /  25.7km/h 80% 0.00in /  0mm
01:44 41.4 °F /  5.2 °C 35.7 °F /  2.1 °C 29.82in /  1009.7hPa West 7.0mph /  11.3km/h 16.0mph /  25.7km/h 80% 0.00in /  0mm
01:49 41.5 °F /  5.3 °C 35.5 °F /  1.9 °C 29.82in /  1009.7hPa West 7.0mph /  11.3km/h 16.0mph /  25.7km/h 79% 0.00in /  0mm
01:54 41.5 °F /  5.3 °C 35.5 °F /  1.9 °C 29.82in /  1009.7hPa West 7.0mph /  11.3km/h 16.0mph /  25.7km/h 79% 0.00in /  0mm
01:59 41.5 °F /  5.3 °C 35.5 °F /  1.9 °C 29.82in /  1009.7hPa West 7.0mph /  11.3km/h 15.0mph /  24.1km/h 79% 0.00in /  0mm
02:04 41.5 °F /  5.3 °C 35.8 °F /  2.1 °C 29.82in /  1009.7hPa West 6.0mph /  9.7km/h 12.0mph /  19.3km/h 80% 0.00in /  0mm
02:09 41.5 °F /  5.3 °C 35.8 °F /  2.1 °C 29.82in /  1009.7hPa West 6.0mph /  9.7km/h 18.0mph /  29km/h 80% 0.00in /  0mm
02:14 41.5 °F /  5.3 °C 35.8 °F /  2.1 °C 29.82in /  1009.7hPa West 7.0mph /  11.3km/h 18.0mph /  29km/h 80% 0.00in /  0mm
02:19 41.4 °F /  5.2 °C 35.7 °F /  2.1 °C 29.82in /  1009.7hPa SW 5.0mph /  8km/h 11.0mph /  17.7km/h 80% 0.00in /  0mm
02:24 41.4 °F /  5.2 °C 35.7 °F /  2.1 °C 29.82in /  1009.7hPa WSW 4.0mph /  6.4km/h 15.0mph /  24.1km/h 80% 0.00in /  0mm
02:29 41.4 °F /  5.2 °C 36.0 °F /  2.2 °C 29.83in /  1010hPa West 5.0mph /  8km/h 10.0mph /  16.1km/h 81% 0.00in /  0mm
02:34 41.3 °F /  5.2 °C 35.9 °F /  2.2 °C 29.82in /  1009.7hPa WSW 5.0mph /  8km/h 11.0mph /  17.7km/h 81% 0.00in /  0mm
02:39 41.3 °F /  5.2 °C 35.9 °F /  2.2 °C 29.82in /  1009.7hPa WSW 6.0mph /  9.7km/h 9.0mph /  14.5km/h 81% 0.00in /  0mm
02:44 41.1 °F /  5.1 °C 36.0 °F /  2.2 °C 29.83in /  1010hPa West 7.0mph /  11.3km/h 12.0mph /  19.3km/h 82% 0.00in /  0mm
02:49 41.0 °F /  5 °C 35.9 °F /  2.2 °C 29.83in /  1010hPa West 6.0mph /  9.7km/h 12.0mph /  19.3km/h 82% 0.00in /  0mm
02:54 40.9 °F /  4.9 °C 36.1 °F /  2.3 °C 29.83in /  1010hPa West 5.0mph /  8km/h 11.0mph /  17.7km/h 83% 0.00in /  0mm
02:59 40.7 °F /  4.8 °C 35.9 °F /  2.2 °C 29.83in /  1010hPa West 6.0mph /  9.7km/h 12.0mph /  19.3km/h 83% 0.00in /  0mm
03:04 40.6 °F /  4.8 °C 35.8 °F /  2.1 °C 29.83in /  1010hPa West 5.0mph /  8km/h 12.0mph /  19.3km/h 83% 0.00in /  0mm
03:09 40.6 °F /  4.8 °C 36.1 °F /  2.3 °C 29.83in /  1010hPa West 5.0mph /  8km/h 10.0mph /  16.1km/h 84% 0.00in /  0mm
03:19 40.6 °F /  4.8 °C 36.1 °F /  2.3 °C 29.83in /  1010hPa WNW 6.0mph /  9.7km/h 11.0mph /  17.7km/h 84% 0.00in /  0mm
03:24 40.6 °F /  4.8 °C 36.1 °F /  2.3 °C 29.84in /  1010.4hPa West 5.0mph /  8km/h 14.0mph /  22.5km/h 84% 0.00in /  0mm
03:29 40.7 °F /  4.8 °C 35.9 °F /  2.2 °C 29.84in /  1010.4hPa West 5.0mph /  8km/h 14.0mph /  22.5km/h 83% 0.00in /  0mm
03:34 40.7 °F /  4.8 °C 35.9 °F /  2.2 °C 29.85in /  1010.7hPa WNW 3.0mph /  4.8km/h 10.0mph /  16.1km/h 83% 0.00in /  0mm
03:39 40.7 °F /  4.8 °C 35.9 °F /  2.2 °C 29.85in /  1010.7hPa WSW 4.0mph /  6.4km/h 9.0mph /  14.5km/h 83% 0.00in /  0mm
03:44 40.8 °F /  4.9 °C 36.0 °F /  2.2 °C 29.86in /  1011.1hPa West 7.0mph /  11.3km/h 14.0mph /  22.5km/h 83% 0.00in /  0mm
03:49 40.8 °F /  4.9 °C 36.0 °F /  2.2 °C 29.86in /  1011.1hPa West 8.0mph /  12.9km/h 10.0mph /  16.1km/h 83% 0.00in /  0mm
03:54 40.8 °F /  4.9 °C 36.0 °F /  2.2 °C 29.87in /  1011.4hPa West 6.0mph /  9.7km/h 12.0mph /  19.3km/h 83% 0.00in /  0mm
03:59 40.7 °F /  4.8 °C 35.6 °F /  2 °C 29.88in /  1011.7hPa West 5.0mph /  8km/h 12.0mph /  19.3km/h 82% 0.00in /  0mm
04:04 40.8 °F /  4.9 °C 35.7 °F /  2.1 °C 29.88in /  1011.7hPa West 5.0mph /  8km/h 11.0mph /  17.7km/h 82% 0.00in /  0mm
04:09 40.8 °F /  4.9 °C 35.7 °F /  2.1 °C 29.88in /  1011.7hPa West 5.0mph /  8km/h 13.0mph /  20.9km/h 82% 0.00in /  0mm
04:14 40.8 °F /  4.9 °C 35.7 °F /  2.1 °C 29.89in /  1012.1hPa West 5.0mph /  8km/h 13.0mph /  20.9km/h 82% 0.00in /  0mm
04:19 40.8 °F /  4.9 °C 35.4 °F /  1.9 °C 29.88in /  1011.7hPa West 8.0mph /  12.9km/h 10.0mph /  16.1km/h 81% 0.00in /  0mm
04:24 40.8 °F /  4.9 °C 35.4 °F /  1.9 °C 29.88in /  1011.7hPa WNW 4.0mph /  6.4km/h 11.0mph /  17.7km/h 81% 0.00in /  0mm
04:29 40.8 °F /  4.9 °C 35.4 °F /  1.9 °C 29.89in /  1012.1hPa West 5.0mph /  8km/h 11.0mph /  17.7km/h 81% 0.00in /  0mm
04:34 40.9 °F /  4.9 °C 35.5 °F /  1.9 °C 29.89in /  1012.1hPa West 10.0mph /  16.1km/h 15.0mph /  24.1km/h 81% 0.00in /  0mm
04:39 40.9 °F /  4.9 °C 35.5 °F /  1.9 °C 29.90in /  1012.4hPa WNW 5.0mph /  8km/h 10.0mph /  16.1km/h 81% 0.00in /  0mm
04:44 40.9 °F /  4.9 °C 35.5 °F /  1.9 °C 29.90in /  1012.4hPa West 3.0mph /  4.8km/h 9.0mph /  14.5km/h 81% 0.00in /  0mm
04:49 40.9 °F /  4.9 °C 35.5 °F /  1.9 °C 29.90in /  1012.4hPa West 8.0mph /  12.9km/h 8.0mph /  12.9km/h 81% 0.00in /  0mm
04:54 40.9 °F /  4.9 °C 35.5 °F /  1.9 °C 29.91in /  1012.8hPa WSW 8.0mph /  12.9km/h 10.0mph /  16.1km/h 81% 0.00in /  0mm
04:59 40.9 °F /  4.9 °C 35.5 °F /  1.9 °C 29.91in /  1012.8hPa West 5.0mph /  8km/h 11.0mph /  17.7km/h 81% 0.00in /  0mm
05:04 40.9 °F /  4.9 °C 35.5 °F /  1.9 °C 29.91in /  1012.8hPa West 5.0mph /  8km/h 11.0mph /  17.7km/h 81% 0.00in /  0mm
05:09 40.9 °F /  4.9 °C 35.5 °F /  1.9 °C 29.92in /  1013.1hPa West 5.0mph /  8km/h 11.0mph /  17.7km/h 81% 0.00in /  0mm
05:14 40.9 °F /  4.9 °C 35.5 °F /  1.9 °C 29.92in /  1013.1hPa West 5.0mph /  8km/h 8.0mph /  12.9km/h 81% 0.00in /  0mm
05:19 40.9 °F /  4.9 °C 35.5 °F /  1.9 °C 29.92in /  1013.1hPa West 4.0mph /  6.4km/h 9.0mph /  14.5km/h 81% 0.00in /  0mm
05:24 40.9 °F /  4.9 °C 35.5 °F /  1.9 °C 29.92in /  1013.1hPa SW 8.0mph /  12.9km/h 8.0mph /  12.9km/h 81% 0.00in /  0mm
05:29 41.0 °F /  5 °C 35.6 °F /  2 °C 29.92in /  1013.1hPa WSW 4.0mph /  6.4km/h 8.0mph /  12.9km/h 81% 0.00in /  0mm
05:34 41.0 °F /  5 °C 35.6 °F /  2 °C 29.92in /  1013.1hPa WSW 3.0mph /  4.8km/h 8.0mph /  12.9km/h 81% 0.00in /  0mm
05:39 41.0 °F /  5 °C 35.9 °F /  2.2 °C 29.93in /  1013.4hPa WSW 4.0mph /  6.4km/h 7.0mph /  11.3km/h 82% 0.00in /  0mm
05:44 40.7 °F /  4.8 °C 35.6 °F /  2 °C 29.93in /  1013.4hPa SW 5.0mph /  8km/h 7.0mph /  11.3km/h 82% 0.00in /  0mm
05:49 40.2 °F /  4.6 °C 35.4 °F /  1.9 °C 29.93in /  1013.4hPa WSW 3.0mph /  4.8km/h 8.0mph /  12.9km/h 83% 0.00in /  0mm
05:54 39.9 °F /  4.4 °C 35.8 °F /  2.1 °C 29.93in /  1013.4hPa SW 4.0mph /  6.4km/h 11.0mph /  17.7km/h 85% 0.00in /  0mm
05:59 39.7 °F /  4.3 °C 35.6 °F /  2 °C 29.94in /  1013.8hPa WSW 3.0mph /  4.8km/h 10.0mph /  16.1km/h 85% 0.00in /  0mm
06:04 39.7 °F /  4.3 °C 35.9 °F /  2.2 °C 29.94in /  1013.8hPa WSW 2.0mph /  3.2km/h 7.0mph /  11.3km/h 86% 0.00in /  0mm
06:09 39.6 °F /  4.2 °C 35.8 °F /  2.1 °C 29.94in /  1013.8hPa WSW 3.0mph /  4.8km/h 7.0mph /  11.3km/h 86% 0.00in /  0mm
06:14 39.7 °F /  4.3 °C 35.9 °F /  2.2 °C 29.94in /  1013.8hPa WSW 3.0mph /  4.8km/h 6.0mph /  9.7km/h 86% 0.00in /  0mm
06:19 39.8 °F /  4.3 °C 36.2 °F /  2.3 °C 29.94in /  1013.8hPa WSW 3.0mph /  4.8km/h 6.0mph /  9.7km/h 87% 0.00in /  0mm
06:24 39.8 °F /  4.3 °C 36.2 °F /  2.3 °C 29.95in /  1014.1hPa SW 4.0mph /  6.4km/h 7.0mph /  11.3km/h 87% 0.00in /  0mm
06:29 39.8 °F /  4.3 °C 36.2 °F /  2.3 °C 29.94in /  1013.8hPa WSW 4.0mph /  6.4km/h 7.0mph /  11.3km/h 87% 0.00in /  0mm
06:34 39.8 °F /  4.3 °C 36.2 °F /  2.3 °C 29.95in /  1014.1hPa SW 2.0mph /  3.2km/h 7.0mph /  11.3km/h 87% 0.00in /  0mm
06:39 39.8 °F /  4.3 °C 36.2 °F /  2.3 °C 29.95in /  1014.1hPa WSW 4.0mph /  6.4km/h 7.0mph /  11.3km/h 87% 0.00in /  0mm
06:44 39.8 °F /  4.3 °C 36.2 °F /  2.3 °C 29.96in /  1014.4hPa South 5.0mph /  8km/h 7.0mph /  11.3km/h 87% 0.00in /  0mm
06:49 39.8 °F /  4.3 °C 36.2 °F /  2.3 °C 29.96in /  1014.4hPa WSW 3.0mph /  4.8km/h 8.0mph /  12.9km/h 87% 0.00in /  0mm
06:54 39.8 °F /  4.3 °C 36.2 °F /  2.3 °C 29.96in /  1014.4hPa SW 3.0mph /  4.8km/h 8.0mph /  12.9km/h 87% 0.00in /  0mm
06:59 39.8 °F /  4.3 °C 36.2 °F /  2.3 °C 29.96in /  1014.4hPa WSW 4.0mph /  6.4km/h 5.0mph /  8km/h 87% 0.00in /  0mm
07:04 39.9 °F /  4.4 °C 36.3 °F /  2.4 °C 29.97in /  1014.8hPa SW 3.0mph /  4.8km/h 6.0mph /  9.7km/h 87% 0.00in /  0mm
07:09 40.0 °F /  4.4 °C 36.4 °F /  2.4 °C 29.97in /  1014.8hPa WSW 3.0mph /  4.8km/h 7.0mph /  11.3km/h 87% 0.00in /  0mm
07:14 40.0 °F /  4.4 °C 36.4 °F /  2.4 °C 29.97in /  1014.8hPa WSW 4.0mph /  6.4km/h 7.0mph /  11.3km/h 87% 0.00in /  0mm
07:19 40.1 °F /  4.5 °C 36.2 °F /  2.3 °C 29.98in /  1015.1hPa WSW 3.0mph /  4.8km/h 7.0mph /  11.3km/h 86% 0.00in /  0mm
07:24 40.2 °F /  4.6 °C 36.3 °F /  2.4 °C 29.98in /  1015.1hPa WSW 4.0mph /  6.4km/h 8.0mph /  12.9km/h 86% 0.00in /  0mm
07:29 40.3 °F /  4.6 °C 36.4 °F /  2.4 °C 29.98in /  1015.1hPa WSW 4.0mph /  6.4km/h 8.0mph /  12.9km/h 86% 0.00in /  0mm
07:34 40.3 °F /  4.6 °C 36.4 °F /  2.4 °C 29.98in /  1015.1hPa WSW 3.0mph /  4.8km/h 6.0mph /  9.7km/h 86% 0.00in /  0mm
07:39 40.4 °F /  4.7 °C 36.5 °F /  2.5 °C 29.98in /  1015.1hPa West 2.0mph /  3.2km/h 6.0mph /  9.7km/h 86% 0.00in /  0mm
07:44 40.6 °F /  4.8 °C 36.7 °F /  2.6 °C 29.98in /  1015.1hPa West 3.0mph /  4.8km/h 6.0mph /  9.7km/h 86% 0.00in /  0mm
07:49 40.7 °F /  4.8 °C 36.8 °F /  2.7 °C 29.98in /  1015.1hPa West 3.0mph /  4.8km/h 4.0mph /  6.4km/h 86% 0.00in /  0mm
07:54 40.9 °F /  4.9 °C 36.7 °F /  2.6 °C 29.98in /  1015.1hPa WNW 1.0mph /  1.6km/h 5.0mph /  8km/h 85% 0.00in /  0mm
07:59 41.0 °F /  5 °C 36.8 °F /  2.7 °C 29.98in /  1015.1hPa NW 2.0mph /  3.2km/h 3.0mph /  4.8km/h 85% 0.00in /  0mm
08:04 41.0 °F /  5 °C 36.8 °F /  2.7 °C 29.98in /  1015.1hPa WNW 4.0mph /  6.4km/h 4.0mph /  6.4km/h 85% 0.00in /  0mm
08:09 41.1 °F /  5.1 °C 36.9 °F /  2.7 °C 29.98in /  1015.1hPa NW 2.0mph /  3.2km/h 3.0mph /  4.8km/h 85% 0.00in /  0mm
08:14 41.3 °F /  5.2 °C 36.8 °F /  2.7 °C 29.98in /  1015.1hPa NNW 1.0mph /  1.6km/h 3.0mph /  4.8km/h 84% 0.00in /  0mm
08:19 41.4 °F /  5.2 °C 36.6 °F /  2.6 °C 29.98in /  1015.1hPa NW 2.0mph /  3.2km/h 6.0mph /  9.7km/h 83% 0.00in /  0mm
08:24 41.6 °F /  5.3 °C 36.5 °F /  2.5 °C 29.98in /  1015.1hPa WNW 3.0mph /  4.8km/h 6.0mph /  9.7km/h 82% 0.00in /  0mm
08:29 41.9 °F /  5.5 °C 36.5 °F /  2.5 °C 29.99in /  1015.5hPa WNW 3.0mph /  4.8km/h 8.0mph /  12.9km/h 81% 0.00in /  0mm
08:34 42.0 °F /  5.6 °C 36.3 °F /  2.4 °C 29.98in /  1015.1hPa WNW 3.0mph /  4.8km/h 8.0mph /  12.9km/h 80% 0.00in /  0mm
08:39 42.0 °F /  5.6 °C 36.3 °F /  2.4 °C 29.98in /  1015.1hPa NW 3.0mph /  4.8km/h 7.0mph /  11.3km/h 80% 0.00in /  0mm
08:44 42.2 °F /  5.7 °C 36.5 °F /  2.5 °C 29.98in /  1015.1hPa West 2.0mph /  3.2km/h 6.0mph /  9.7km/h 80% 0.00in /  0mm
08:49 42.3 °F /  5.7 °C 36.3 °F /  2.4 °C 29.98in /  1015.1hPa WNW 2.0mph /  3.2km/h 6.0mph /  9.7km/h 79% 0.00in /  0mm
08:54 42.3 °F /  5.7 °C 36.3 °F /  2.4 °C 29.98in /  1015.1hPa NW 3.0mph /  4.8km/h 6.0mph /  9.7km/h 79% 0.00in /  0mm
08:59 42.2 °F /  5.7 °C 35.8 °F /  2.1 °C 29.98in /  1015.1hPa North 4.0mph /  6.4km/h 6.0mph /  9.7km/h 78% 0.00in /  0mm
09:04 42.2 °F /  5.7 °C 35.8 °F /  2.1 °C 29.98in /  1015.1hPa NNW 3.0mph /  4.8km/h 7.0mph /  11.3km/h 78% 0.00in /  0mm
09:09 42.4 °F /  5.8 °C 36.3 °F /  2.4 °C 29.98in /  1015.1hPa NNW 3.0mph /  4.8km/h 5.0mph /  8km/h 79% 0.00in /  0mm
09:14 42.6 °F /  5.9 °C 36.5 °F /  2.5 °C 29.98in /  1015.1hPa WNW 1.0mph /  1.6km/h 5.0mph /  8km/h 79% 0.00in /  0mm
09:19 42.8 °F /  6 °C 36.4 °F /  2.4 °C 29.98in /  1015.1hPa NNW 3.0mph /  4.8km/h 7.0mph /  11.3km/h 78% 0.00in /  0mm
09:24 42.5 °F /  5.8 °C 36.1 °F /  2.3 °C 29.98in /  1015.1hPa NNW 3.0mph /  4.8km/h 9.0mph /  14.5km/h 78% 0.00in /  0mm
09:29 42.5 °F /  5.8 °C 36.1 °F /  2.3 °C 29.99in /  1015.5hPa NNW 3.0mph /  4.8km/h 9.0mph /  14.5km/h 78% 0.00in /  0mm
09:34 42.4 °F /  5.8 °C 36.0 °F /  2.2 °C 29.99in /  1015.5hPa NW 3.0mph /  4.8km/h 6.0mph /  9.7km/h 78% 0.00in /  0mm
09:39 42.6 °F /  5.9 °C 36.2 °F /  2.3 °C 29.97in /  1014.8hPa NNW 4.0mph /  6.4km/h 7.0mph /  11.3km/h 78% 0.00in /  0mm
09:49 42.5 °F /  5.8 °C 36.1 °F /  2.3 °C 29.99in /  1015.5hPa NNW 5.0mph /  8km/h 8.0mph /  12.9km/h 78% 0.00in /  0mm
09:54 42.7 °F /  5.9 °C 36.6 °F /  2.6 °C 29.99in /  1015.5hPa North 4.0mph /  6.4km/h 8.0mph /  12.9km/h 79% 0.00in /  0mm
09:59 42.9 °F /  6.1 °C 36.8 °F /  2.7 °C 29.99in /  1015.5hPa WNW 3.0mph /  4.8km/h 5.0mph /  8km/h 79% 0.00in /  0mm
10:04 43.0 °F /  6.1 °C 36.6 °F /  2.6 °C 29.99in /  1015.5hPa NW 3.0mph /  4.8km/h 6.0mph /  9.7km/h 78% 0.00in /  0mm
10:09 43.1 °F /  6.2 °C 36.4 °F /  2.4 °C 29.98in /  1015.1hPa NNW 4.0mph /  6.4km/h 7.0mph /  11.3km/h 77% 0.00in /  0mm
10:14 42.9 °F /  6.1 °C 36.5 °F /  2.5 °C 29.99in /  1015.5hPa NNW 3.0mph /  4.8km/h 7.0mph /  11.3km/h 78% 0.00in /  0mm
10:19 42.8 °F /  6 °C 36.4 °F /  2.4 °C 29.98in /  1015.1hPa Calm   4.0mph /  6.4km/h 78% 0.00in /  0mm
10:24 42.8 °F /  6 °C 36.1 °F /  2.3 °C 29.98in /  1015.1hPa North 3.0mph /  4.8km/h 6.0mph /  9.7km/h 77% 0.00in /  0mm
10:29 42.7 °F /  5.9 °C 36.0 °F /  2.2 °C 29.98in /  1015.1hPa North 3.0mph /  4.8km/h 7.0mph /  11.3km/h 77% 0.00in /  0mm
10:34 42.8 °F /  6 °C 36.1 °F /  2.3 °C 29.99in /  1015.5hPa NNW 3.0mph /  4.8km/h 7.0mph /  11.3km/h 77% 0.00in /  0mm
10:39 42.9 °F /  6.1 °C 36.2 °F /  2.3 °C 29.99in /  1015.5hPa NNW 2.0mph /  3.2km/h 5.0mph /  8km/h 77% 0.00in /  0mm
10:44 43.3 °F /  6.3 °C 36.6 °F /  2.6 °C 29.99in /  1015.5hPa North 3.0mph /  4.8km/h 6.0mph /  9.7km/h 77% 0.00in /  0mm
10:49 43.3 °F /  6.3 °C 36.2 °F /  2.3 °C 29.99in /  1015.5hPa NE 2.0mph /  3.2km/h 7.0mph /  11.3km/h 76% 0.00in /  0mm
10:54 43.3 °F /  6.3 °C 36.6 °F /  2.6 °C 29.99in /  1015.5hPa North 2.0mph /  3.2km/h 5.0mph /  8km/h 77% 0.00in /  0mm
10:59 43.7 °F /  6.5 °C 36.3 °F /  2.4 °C 29.99in /  1015.5hPa NNE 2.0mph /  3.2km/h 5.0mph /  8km/h 75% 0.00in /  0mm
11:04 43.8 °F /  6.6 °C 36.7 °F /  2.6 °C 29.99in /  1015.5hPa NNE 2.0mph /  3.2km/h 4.0mph /  6.4km/h 76% 0.00in /  0mm
11:09 44.2 °F /  6.8 °C 36.4 °F /  2.4 °C 29.99in /  1015.5hPa NNW 2.0mph /  3.2km/h 5.0mph /  8km/h 74% 0.00in /  0mm
11:14 44.2 °F /  6.8 °C 36.4 °F /  2.4 °C 30.00in /  1015.8hPa Calm   5.0mph /  8km/h 74% 0.00in /  0mm
11:19 43.9 °F /  6.6 °C 36.5 °F /  2.5 °C 30.00in /  1015.8hPa Calm   5.0mph /  8km/h 75% 0.00in /  0mm
11:24 44.1 °F /  6.7 °C 36.7 °F /  2.6 °C 30.00in /  1015.8hPa NNW 1.0mph /  1.6km/h 3.0mph /  4.8km/h 75% 0.00in /  0mm
11:29 44.2 °F /  6.8 °C 36.4 °F /  2.4 °C 30.01in /  1016.1hPa Calm   2.0mph /  3.2km/h 74% 0.00in /  0mm
11:34 44.4 °F /  6.9 °C 36.6 °F /  2.6 °C 30.01in /  1016.1hPa WSW 1.0mph /  1.6km/h 4.0mph /  6.4km/h 74% 0.00in /  0mm
11:39 44.7 °F /  7.1 °C 36.9 °F /  2.7 °C 30.01in /  1016.1hPa WSW 2.0mph /  3.2km/h 5.0mph /  8km/h 74% 0.00in /  0mm
11:44 44.5 °F /  6.9 °C 36.4 °F /  2.4 °C 30.00in /  1015.8hPa WSW 2.0mph /  3.2km/h 5.0mph /  8km/h 73% 0.00in /  0mm
11:49 44.9 °F /  7.2 °C 37.5 °F /  3.1 °C 30.00in /  1015.8hPa South 2.0mph /  3.2km/h 3.0mph /  4.8km/h 75% 0.00in /  0mm
11:54 45.1 °F /  7.3 °C 37.3 °F /  2.9 °C 30.00in /  1015.8hPa South 1.0mph /  1.6km/h 3.0mph /  4.8km/h 74% 0.00in /  0mm
11:59 45.7 °F /  7.6 °C 37.5 °F /  3.1 °C 30.00in /  1015.8hPa SSE 2.0mph /  3.2km/h 3.0mph /  4.8km/h 73% 0.00in /  0mm
12:04 46.0 °F /  7.8 °C 38.2 °F /  3.4 °C 29.99in /  1015.5hPa SSE 1.0mph /  1.6km/h 3.0mph /  4.8km/h 74% 0.00in /  0mm
12:09 46.5 °F /  8.1 °C 37.6 °F /  3.1 °C 29.99in /  1015.5hPa SSW 2.0mph /  3.2km/h 6.0mph /  9.7km/h 71% 0.00in /  0mm
12:14 46.7 °F /  8.2 °C 37.8 °F /  3.2 °C 29.99in /  1015.5hPa WSW 2.0mph /  3.2km/h 6.0mph /  9.7km/h 71% 0.00in /  0mm
12:19 47.7 °F /  8.7 °C 39.1 °F /  3.9 °C 29.99in /  1015.5hPa SW 2.0mph /  3.2km/h 5.0mph /  8km/h 72% 0.00in /  0mm
12:24 47.0 °F /  8.3 °C 37.7 °F /  3.2 °C 29.99in /  1015.5hPa South 2.0mph /  3.2km/h 5.0mph /  8km/h 70% 0.00in /  0mm
12:29 47.3 °F /  8.5 °C 38.7 °F /  3.7 °C 29.98in /  1015.1hPa South 2.0mph /  3.2km/h 5.0mph /  8km/h 72% 0.00in /  0mm
12:34 48.6 °F /  9.2 °C 39.6 °F /  4.2 °C 29.98in /  1015.1hPa SSE 2.0mph /  3.2km/h 4.0mph /  6.4km/h 71% 0.00in /  0mm
12:39 47.7 °F /  8.7 °C 38.4 °F /  3.6 °C 29.98in /  1015.1hPa WNW 3.0mph /  4.8km/h 4.0mph /  6.4km/h 70% 0.00in /  0mm
12:44 47.4 °F /  8.6 °C 37.7 °F /  3.2 °C 29.98in /  1015.1hPa SSW 3.0mph /  4.8km/h 4.0mph /  6.4km/h 69% 0.00in /  0mm
12:49 48.1 °F /  8.9 °C 38.8 °F /  3.8 °C 29.98in /  1015.1hPa Calm   4.0mph /  6.4km/h 70% 0.00in /  0mm
12:54 48.6 °F /  9.2 °C 38.9 °F /  3.8 °C 29.98in /  1015.1hPa NNE 4.0mph /  6.4km/h 4.0mph /  6.4km/h 69% 0.00in /  0mm
12:59 48.4 °F /  9.1 °C 38.7 °F /  3.7 °C 29.97in /  1014.8hPa SSE 3.0mph /  4.8km/h 5.0mph /  8km/h 69% 0.00in /  0mm
13:04 48.2 °F /  9 °C 38.1 °F /  3.4 °C 29.98in /  1015.1hPa Calm   5.0mph /  8km/h 68% 0.00in /  0mm
13:09 48.3 °F /  9.1 °C 38.6 °F /  3.7 °C 29.98in /  1015.1hPa Calm   5.0mph /  8km/h 69% 0.00in /  0mm
13:14 48.8 °F /  9.3 °C 38.7 °F /  3.7 °C 29.97in /  1014.8hPa ESE 2.0mph /  3.2km/h 5.0mph /  8km/h 68% 0.00in /  0mm
13:19 49.9 °F /  9.9 °C 39.4 °F /  4.1 °C 29.97in /  1014.8hPa ESE 3.0mph /  4.8km/h 4.0mph /  6.4km/h 67% 0.00in /  0mm
13:24 48.9 °F /  9.4 °C 39.2 °F /  4 °C 29.96in /  1014.4hPa ESE 1.0mph /  1.6km/h 4.0mph /  6.4km/h 69% 0.00in /  0mm
13:29 50.0 °F /  10 °C 39.8 °F /  4.3 °C 29.96in /  1014.4hPa ESE 1.0mph /  1.6km/h 4.0mph /  6.4km/h 68% 0.00in /  0mm
13:34 50.0 °F /  10 °C 39.5 °F /  4.2 °C 29.96in /  1014.4hPa ENE 2.0mph /  3.2km/h 7.0mph /  11.3km/h 67% 0.00in /  0mm
13:39 50.2 °F /  10.1 °C 39.3 °F /  4.1 °C 29.96in /  1014.4hPa ESE 1.0mph /  1.6km/h 8.0mph /  12.9km/h 66% 0.00in /  0mm
13:44 50.3 °F /  10.2 °C 39.8 °F /  4.3 °C 29.96in /  1014.4hPa ESE 3.0mph /  4.8km/h 8.0mph /  12.9km/h 67% 0.00in /  0mm
13:49 50.5 °F /  10.3 °C 40.7 °F /  4.8 °C 29.96in /  1014.4hPa ENE 2.0mph /  3.2km/h 8.0mph /  12.9km/h 69% 0.00in /  0mm
13:54 50.6 °F /  10.3 °C 40.4 °F /  4.7 °C 29.96in /  1014.4hPa East 6.0mph /  9.7km/h 6.0mph /  9.7km/h 68% 0.00in /  0mm
13:59 50.1 °F /  10.1 °C 38.8 °F /  3.8 °C 29.96in /  1014.4hPa Calm   6.0mph /  9.7km/h 65% 0.00in /  0mm
14:04 51.5 °F /  10.8 °C 41.7 °F /  5.4 °C 29.96in /  1014.4hPa SW 3.0mph /  4.8km/h 4.0mph /  6.4km/h 69% 0.00in /  0mm
14:09 50.9 °F /  10.5 °C 39.5 °F /  4.2 °C 29.96in /  1014.4hPa NE 2.0mph /  3.2km/h 5.0mph /  8km/h 65% 0.00in /  0mm
14:14 51.4 °F /  10.8 °C 40.0 °F /  4.4 °C 29.95in /  1014.1hPa East 2.0mph /  3.2km/h 7.0mph /  11.3km/h 65% 0.00in /  0mm
14:19 50.4 °F /  10.2 °C 39.1 °F /  3.9 °C 29.95in /  1014.1hPa NE 3.0mph /  4.8km/h 7.0mph /  11.3km/h 65% 0.00in /  0mm
14:24 51.6 °F /  10.9 °C 41.4 °F /  5.2 °C 29.94in /  1013.8hPa NE 2.0mph /  3.2km/h 5.0mph /  8km/h 68% 0.00in /  0mm
14:29 52.2 °F /  11.2 °C 40.8 °F /  4.9 °C 29.94in /  1013.8hPa NE 3.0mph /  4.8km/h 10.0mph /  16.1km/h 65% 0.00in /  0mm
14:34 51.5 °F /  10.8 °C 40.1 °F /  4.5 °C 29.93in /  1013.4hPa ENE 4.0mph /  6.4km/h 10.0mph /  16.1km/h 65% 0.00in /  0mm
14:39 50.8 °F /  10.4 °C 39.1 °F /  3.9 °C 29.92in /  1013.1hPa NNE 5.0mph /  8km/h 8.0mph /  12.9km/h 64% 0.00in /  0mm
14:44 52.1 °F /  11.2 °C 41.9 °F /  5.5 °C 29.93in /  1013.4hPa NE 2.0mph /  3.2km/h 8.0mph /  12.9km/h 68% 0.00in /  0mm
14:49 52.1 °F /  11.2 °C 40.3 °F /  4.6 °C 29.93in /  1013.4hPa NNE 4.0mph /  6.4km/h 8.0mph /  12.9km/h 64% 0.00in /  0mm
14:54 52.4 °F /  11.3 °C 41.0 °F /  5 °C 29.92in /  1013.1hPa NNE 4.0mph /  6.4km/h 10.0mph /  16.1km/h 65% 0.00in /  0mm
14:59 52.2 °F /  11.2 °C 40.4 °F /  4.7 °C 29.92in /  1013.1hPa NE 4.0mph /  6.4km/h 10.0mph /  16.1km/h 64% 0.00in /  0mm
15:04 51.7 °F /  10.9 °C 39.9 °F /  4.4 °C 29.91in /  1012.8hPa ENE 5.0mph /  8km/h 11.0mph /  17.7km/h 64% 0.00in /  0mm
15:09 51.2 °F /  10.7 °C 39.8 °F /  4.3 °C 29.90in /  1012.4hPa North 3.0mph /  4.8km/h 7.0mph /  11.3km/h 65% 0.00in /  0mm
15:14 51.6 °F /  10.9 °C 40.6 °F /  4.8 °C 29.91in /  1012.8hPa East 6.0mph /  9.7km/h 10.0mph /  16.1km/h 66% 0.00in /  0mm
15:19 51.6 °F /  10.9 °C 39.8 °F /  4.3 °C 29.90in /  1012.4hPa ENE 2.0mph /  3.2km/h 10.0mph /  16.1km/h 64% 0.00in /  0mm
15:24 51.6 °F /  10.9 °C 40.2 °F /  4.6 °C 29.91in /  1012.8hPa ENE 4.0mph /  6.4km/h 10.0mph /  16.1km/h 65% 0.00in /  0mm
15:29 51.9 °F /  11.1 °C 40.5 °F /  4.7 °C 29.91in /  1012.8hPa ENE 3.0mph /  4.8km/h 8.0mph /  12.9km/h 65% 0.00in /  0mm
15:34 51.8 °F /  11 °C 40.0 °F /  4.4 °C 29.90in /  1012.4hPa NE 2.0mph /  3.2km/h 9.0mph /  14.5km/h 64% 0.00in /  0mm
15:39 51.6 °F /  10.9 °C 40.2 °F /  4.6 °C 29.90in /  1012.4hPa NE 4.0mph /  6.4km/h 8.0mph /  12.9km/h 65% 0.00in /  0mm
15:44 52.2 °F /  11.2 °C 41.2 °F /  5.1 °C 29.90in /  1012.4hPa NNE 5.0mph /  8km/h 11.0mph /  17.7km/h 66% 0.00in /  0mm
15:49 53.1 °F /  11.7 °C 41.2 °F /  5.1 °C 29.89in /  1012.1hPa NE 5.0mph /  8km/h 12.0mph /  19.3km/h 64% 0.00in /  0mm
15:54 52.6 °F /  11.4 °C 41.2 °F /  5.1 °C 29.89in /  1012.1hPa NE 6.0mph /  9.7km/h 13.0mph /  20.9km/h 65% 0.00in /  0mm
15:59 53.4 °F /  11.9 °C 41.1 °F /  5.1 °C 29.88in /  1011.7hPa NE 6.0mph /  9.7km/h 13.0mph /  20.9km/h 63% 0.00in /  0mm
16:04 52.6 °F /  11.4 °C 40.8 °F /  4.9 °C 29.88in /  1011.7hPa NE 5.0mph /  8km/h 12.0mph /  19.3km/h 64% 0.00in /  0mm
16:09 52.2 °F /  11.2 °C 41.2 °F /  5.1 °C 29.87in /  1011.4hPa NE 5.0mph /  8km/h 14.0mph /  22.5km/h 66% 0.00in /  0mm
16:14 52.8 °F /  11.6 °C 41.0 °F /  5 °C 29.87in /  1011.4hPa NE 6.0mph /  9.7km/h 14.0mph /  22.5km/h 64% 0.00in /  0mm
16:19 52.9 °F /  11.6 °C 41.8 °F /  5.4 °C 29.86in /  1011.1hPa ENE 8.0mph /  12.9km/h 10.0mph /  16.1km/h 66% 0.00in /  0mm
16:24 53.3 °F /  11.8 °C 41.0 °F /  5 °C 29.86in /  1011.1hPa NE 8.0mph /  12.9km/h 13.0mph /  20.9km/h 63% 0.00in /  0mm
16:29 52.4 °F /  11.3 °C 41.0 °F /  5 °C 29.86in /  1011.1hPa NE 6.0mph /  9.7km/h 13.0mph /  20.9km/h 65% 0.00in /  0mm
16:34 53.4 °F /  11.9 °C 41.9 °F /  5.5 °C 29.86in /  1011.1hPa NE 7.0mph /  11.3km/h 14.0mph /  22.5km/h 65% 0.00in /  0mm
16:39 53.5 °F /  11.9 °C 41.6 °F /  5.3 °C 29.86in /  1011.1hPa NNE 3.0mph /  4.8km/h 11.0mph /  17.7km/h 64% 0.00in /  0mm
16:44 53.0 °F /  11.7 °C 41.1 °F /  5.1 °C 29.85in /  1010.7hPa NNE 4.0mph /  6.4km/h 12.0mph /  19.3km/h 64% 0.00in /  0mm
16:49 52.6 °F /  11.4 °C 41.2 °F /  5.1 °C 29.85in /  1010.7hPa NNE 4.0mph /  6.4km/h 14.0mph /  22.5km/h 65% 0.00in /  0mm
16:54 53.3 °F /  11.8 °C 41.8 °F /  5.4 °C 29.84in /  1010.4hPa ENE 4.0mph /  6.4km/h 10.0mph /  16.1km/h 65% 0.00in /  0mm
16:59 53.1 °F /  11.7 °C 41.6 °F /  5.3 °C 29.84in /  1010.4hPa NE 6.0mph /  9.7km/h 13.0mph /  20.9km/h 65% 0.00in /  0mm
17:04 52.5 °F /  11.4 °C 41.9 °F /  5.5 °C 29.84in /  1010.4hPa NE 7.0mph /  11.3km/h 14.0mph /  22.5km/h 67% 0.00in /  0mm
17:09 53.0 °F /  11.7 °C 41.9 °F /  5.5 °C 29.83in /  1010hPa NE 7.0mph /  11.3km/h 14.0mph /  22.5km/h 66% 0.00in /  0mm
17:14 53.2 °F /  11.8 °C 41.7 °F /  5.4 °C 29.83in /  1010hPa NE 8.0mph /  12.9km/h 18.0mph /  29km/h 65% 0.00in /  0mm
17:19 52.6 °F /  11.4 °C 41.6 °F /  5.3 °C 29.83in /  1010hPa NE 8.0mph /  12.9km/h 18.0mph /  29km/h 66% 0.00in /  0mm
17:24 52.8 °F /  11.6 °C 41.7 °F /  5.4 °C 29.82in /  1009.7hPa ENE 11.0mph /  17.7km/h 14.0mph /  22.5km/h 66% 0.00in /  0mm
17:29 52.4 °F /  11.3 °C 41.4 °F /  5.2 °C 29.82in /  1009.7hPa NE 8.0mph /  12.9km/h 14.0mph /  22.5km/h 66% 0.00in /  0mm
17:34 52.2 °F /  11.2 °C 41.2 °F /  5.1 °C 29.82in /  1009.7hPa NE 4.0mph /  6.4km/h 17.0mph /  27.4km/h 66% 0.00in /  0mm
17:39 52.1 °F /  11.2 °C 41.5 °F /  5.3 °C 29.82in /  1009.7hPa East 11.0mph /  17.7km/h 14.0mph /  22.5km/h 67% 0.00in /  0mm
17:44 52.1 °F /  11.2 °C 41.5 °F /  5.3 °C 29.82in /  1009.7hPa NNE 8.0mph /  12.9km/h 15.0mph /  24.1km/h 67% 0.00in /  0mm
17:49 52.4 °F /  11.3 °C 41.8 °F /  5.4 °C 29.82in /  1009.7hPa NE 10.0mph /  16.1km/h 16.0mph /  25.7km/h 67% 0.00in /  0mm
17:54 52.1 °F /  11.2 °C 41.1 °F /  5.1 °C 29.83in /  1010hPa East 9.0mph /  14.5km/h 15.0mph /  24.1km/h 66% 0.00in /  0mm
17:59 51.5 °F /  10.8 °C 41.3 °F /  5.2 °C 29.82in /  1009.7hPa NE 10.0mph /  16.1km/h 17.0mph /  27.4km/h 68% 0.00in /  0mm
18:04 51.4 °F /  10.8 °C 41.2 °F /  5.1 °C 29.82in /  1009.7hPa NE 7.0mph /  11.3km/h 17.0mph /  27.4km/h 68% 0.00in /  0mm
18:09 51.4 °F /  10.8 °C 41.2 °F /  5.1 °C 29.82in /  1009.7hPa NE 6.0mph /  9.7km/h 16.0mph /  25.7km/h 68% 0.00in /  0mm
18:14 51.4 °F /  10.8 °C 41.2 °F /  5.1 °C 29.82in /  1009.7hPa NE 6.0mph /  9.7km/h 14.0mph /  22.5km/h 68% 0.00in /  0mm
18:19 50.8 °F /  10.4 °C 41.0 °F /  5 °C 29.83in /  1010hPa NE 6.0mph /  9.7km/h 16.0mph /  25.7km/h 69% 0.00in /  0mm
18:24 50.6 °F /  10.3 °C 40.8 °F /  4.9 °C 29.83in /  1010hPa NE 7.0mph /  11.3km/h 16.0mph /  25.7km/h 69% 0.00in /  0mm
18:29 50.7 °F /  10.4 °C 41.3 °F /  5.2 °C 29.83in /  1010hPa NE 6.0mph /  9.7km/h 14.0mph /  22.5km/h 70% 0.00in /  0mm
18:34 50.5 °F /  10.3 °C 40.7 °F /  4.8 °C 29.83in /  1010hPa ENE 9.0mph /  14.5km/h 14.0mph /  22.5km/h 69% 0.00in /  0mm
18:39 50.2 °F /  10.1 °C 40.8 °F /  4.9 °C 29.83in /  1010hPa NNE 6.0mph /  9.7km/h 11.0mph /  17.7km/h 70% 0.00in /  0mm
18:44 50.1 °F /  10.1 °C 40.7 °F /  4.8 °C 29.83in /  1010hPa NE 5.0mph /  8km/h 12.0mph /  19.3km/h 70% 0.00in /  0mm
18:49 50.1 °F /  10.1 °C 40.7 °F /  4.8 °C 29.82in /  1009.7hPa NE 8.0mph /  12.9km/h 14.0mph /  22.5km/h 70% 0.00in /  0mm
18:54 49.9 °F /  9.9 °C 40.5 °F /  4.7 °C 29.82in /  1009.7hPa NNE 6.0mph /  9.7km/h 15.0mph /  24.1km/h 70% 0.00in /  0mm
18:59 49.7 °F /  9.8 °C 40.3 °F /  4.6 °C 29.82in /  1009.7hPa ENE 7.0mph /  11.3km/h 15.0mph /  24.1km/h 70% 0.00in /  0mm
19:04 49.4 °F /  9.7 °C 40.0 °F /  4.4 °C 29.81in /  1009.4hPa ENE 9.0mph /  14.5km/h 18.0mph /  29km/h 70% 0.00in /  0mm
19:09 49.2 °F /  9.6 °C 39.8 °F /  4.3 °C 29.81in /  1009.4hPa NE 10.0mph /  16.1km/h 19.0mph /  30.6km/h 70% 0.00in /  0mm
19:14 49.0 °F /  9.4 °C 40.0 °F /  4.4 °C 29.80in /  1009hPa NE 9.0mph /  14.5km/h 19.0mph /  30.6km/h 71% 0.00in /  0mm
19:19 48.9 °F /  9.4 °C 39.9 °F /  4.4 °C 29.80in /  1009hPa NE 9.0mph /  14.5km/h 18.0mph /  29km/h 71% 0.00in /  0mm
19:24 48.8 °F /  9.3 °C 39.8 °F /  4.3 °C 29.80in /  1009hPa NE 10.0mph /  16.1km/h 18.0mph /  29km/h 71% 0.00in /  0mm
19:29 48.8 °F /  9.3 °C 39.8 °F /  4.3 °C 29.80in /  1009hPa NE 9.0mph /  14.5km/h 17.0mph /  27.4km/h 71% 0.00in /  0mm
19:34 48.7 °F /  9.3 °C 39.7 °F /  4.3 °C 29.79in /  1008.7hPa ENE 9.0mph /  14.5km/h 17.0mph /  27.4km/h 71% 0.00in /  0mm
19:39 48.6 °F /  9.2 °C 39.6 °F /  4.2 °C 29.79in /  1008.7hPa ENE 9.0mph /  14.5km/h 16.0mph /  25.7km/h 71% 0.00in /  0mm
19:44 48.3 °F /  9.1 °C 39.3 °F /  4.1 °C 29.78in /  1008.4hPa NE 9.0mph /  14.5km/h 19.0mph /  30.6km/h 71% 0.00in /  0mm
19:49 47.8 °F /  8.8 °C 39.2 °F /  4 °C 29.78in /  1008.4hPa NE 7.0mph /  11.3km/h 17.0mph /  27.4km/h 72% 0.00in /  0mm
19:54 47.2 °F /  8.4 °C 38.6 °F /  3.7 °C 29.77in /  1008hPa NE 10.0mph /  16.1km/h 16.0mph /  25.7km/h 72% 0.00in /  0mm
19:59 46.9 °F /  8.3 °C 38.7 °F /  3.7 °C 29.76in /  1007.7hPa NE 6.0mph /  9.7km/h 19.0mph /  30.6km/h 73% 0.00in /  0mm
20:04 46.7 °F /  8.2 °C 38.5 °F /  3.6 °C 29.76in /  1007.7hPa NNE 7.0mph /  11.3km/h 16.0mph /  25.7km/h 73% 0.00in /  0mm
20:09 46.5 °F /  8.1 °C 38.3 °F /  3.5 °C 29.76in /  1007.7hPa NE 9.0mph /  14.5km/h 20.0mph /  32.2km/h 73% 0.00in /  0mm
20:14 46.2 °F /  7.9 °C 38.4 °F /  3.6 °C 29.77in /  1008hPa NE 10.0mph /  16.1km/h 20.0mph /  32.2km/h 74% 0.00in /  0mm
20:19 46.0 °F /  7.8 °C 38.2 °F /  3.4 °C 29.76in /  1007.7hPa NE 10.0mph /  16.1km/h 18.0mph /  29km/h 74% 0.00in /  0mm
20:24 45.7 °F /  7.6 °C 37.9 °F /  3.3 °C 29.76in /  1007.7hPa NE 11.0mph /  17.7km/h 21.0mph /  33.8km/h 74% 0.00in /  0mm
20:29 45.4 °F /  7.4 °C 37.6 °F /  3.1 °C 29.77in /  1008hPa NE 12.0mph /  19.3km/h 21.0mph /  33.8km/h 74% 0.00in /  0mm
20:34 45.1 °F /  7.3 °C 37.6 °F /  3.1 °C 29.77in /  1008hPa NE 10.0mph /  16.1km/h 18.0mph /  29km/h 75% 0.00in /  0mm
20:39 44.7 °F /  7.1 °C 37.3 °F /  2.9 °C 29.77in /  1008hPa NE 8.0mph /  12.9km/h 18.0mph /  29km/h 75% 0.00in /  0mm
20:44 44.4 °F /  6.9 °C 37.0 °F /  2.8 °C 29.77in /  1008hPa NE 10.0mph /  16.1km/h 17.0mph /  27.4km/h 75% 0.00in /  0mm
20:49 44.2 °F /  6.8 °C 37.1 °F /  2.8 °C 29.77in /  1008hPa NNE 7.0mph /  11.3km/h 14.0mph /  22.5km/h 76% 0.00in /  0mm
20:54 44.0 °F /  6.7 °C 36.9 °F /  2.7 °C 29.77in /  1008hPa ENE 10.0mph /  16.1km/h 19.0mph /  30.6km/h 76% 0.00in /  0mm
20:59 44.0 °F /  6.7 °C 36.9 °F /  2.7 °C 29.77in /  1008hPa NE 7.0mph /  11.3km/h 14.0mph /  22.5km/h 76% 0.00in /  0mm
21:04 43.9 °F /  6.6 °C 36.8 °F /  2.7 °C 29.77in /  1008hPa NE 5.0mph /  8km/h 18.0mph /  29km/h 76% 0.00in /  0mm
21:09 43.9 °F /  6.6 °C 36.8 °F /  2.7 °C 29.77in /  1008hPa NE 8.0mph /  12.9km/h 15.0mph /  24.1km/h 76% 0.00in /  0mm
21:14 44.0 °F /  6.7 °C 36.9 °F /  2.7 °C 29.77in /  1008hPa NNE 4.0mph /  6.4km/h 13.0mph /  20.9km/h 76% 0.00in /  0mm
21:19 44.1 °F /  6.7 °C 37.3 °F /  2.9 °C 29.77in /  1008hPa ENE 7.0mph /  11.3km/h 14.0mph /  22.5km/h 77% 0.00in /  0mm
21:24 44.2 °F /  6.8 °C 37.1 °F /  2.8 °C 29.77in /  1008hPa ENE 7.0mph /  11.3km/h 14.0mph /  22.5km/h 76% 0.00in /  0mm
21:29 44.3 °F /  6.8 °C 37.2 °F /  2.9 °C 29.77in /  1008hPa NE 7.0mph /  11.3km/h 14.0mph /  22.5km/h 76% 0.00in /  0mm
21:34 44.3 °F /  6.8 °C 37.2 °F /  2.9 °C 29.77in /  1008hPa ENE 8.0mph /  12.9km/h 14.0mph /  22.5km/h 76% 0.00in /  0mm
21:39 44.4 °F /  6.9 °C 37.3 °F /  2.9 °C 29.77in /  1008hPa ENE 8.0mph /  12.9km/h 15.0mph /  24.1km/h 76% 0.00in /  0mm
21:44 44.3 °F /  6.8 °C 37.2 °F /  2.9 °C 29.77in /  1008hPa ENE 8.0mph /  12.9km/h 15.0mph /  24.1km/h 76% 0.00in /  0mm
21:49 44.2 °F /  6.8 °C 37.1 °F /  2.8 °C 29.76in /  1007.7hPa NE 8.0mph /  12.9km/h 16.0mph /  25.7km/h 76% 0.00in /  0mm
21:54 44.2 °F /  6.8 °C 37.1 °F /  2.8 °C 29.76in /  1007.7hPa NE 5.0mph /  8km/h 13.0mph /  20.9km/h 76% 0.00in /  0mm
21:59 44.1 °F /  6.7 °C 37.3 °F /  2.9 °C 29.75in /  1007.3hPa NE 8.0mph /  12.9km/h 16.0mph /  25.7km/h 77% 0.00in /  0mm
22:04 44.1 °F /  6.7 °C 37.3 °F /  2.9 °C 29.75in /  1007.3hPa East 7.0mph /  11.3km/h 16.0mph /  25.7km/h 77% 0.00in /  0mm
22:09 44.2 °F /  6.8 °C 37.4 °F /  3 °C 29.75in /  1007.3hPa NE 8.0mph /  12.9km/h 14.0mph /  22.5km/h 77% 0.00in /  0mm
22:14 44.2 °F /  6.8 °C 37.4 °F /  3 °C 29.75in /  1007.3hPa NE 5.0mph /  8km/h 12.0mph /  19.3km/h 77% 0.00in /  0mm
22:19 44.2 °F /  6.8 °C 37.8 °F /  3.2 °C 29.74in /  1007hPa NE 9.0mph /  14.5km/h 16.0mph /  25.7km/h 78% 0.00in /  0mm
22:24 44.3 °F /  6.8 °C 37.9 °F /  3.3 °C 29.74in /  1007hPa ENE 6.0mph /  9.7km/h 16.0mph /  25.7km/h 78% 0.00in /  0mm
22:29 44.4 °F /  6.9 °C 38.0 °F /  3.3 °C 29.73in /  1006.7hPa ENE 7.0mph /  11.3km/h 15.0mph /  24.1km/h 78% 0.00in /  0mm
22:34 44.5 °F /  6.9 °C 38.1 °F /  3.4 °C 29.73in /  1006.7hPa ENE 8.0mph /  12.9km/h 16.0mph /  25.7km/h 78% 0.00in /  0mm
22:39 44.5 °F /  6.9 °C 38.1 °F /  3.4 °C 29.73in /  1006.7hPa ENE 7.0mph /  11.3km/h 16.0mph /  25.7km/h 78% 0.00in /  0mm
22:44 44.6 °F /  7 °C 38.2 °F /  3.4 °C 29.72in /  1006.3hPa East 10.0mph /  16.1km/h 13.0mph /  20.9km/h 78% 0.00in /  0mm
22:49 44.5 °F /  6.9 °C 37.7 °F /  3.2 °C 29.72in /  1006.3hPa NE 9.0mph /  14.5km/h 16.0mph /  25.7km/h 77% 0.00in /  0mm
22:54 44.5 °F /  6.9 °C 37.7 °F /  3.2 °C 29.72in /  1006.3hPa ENE 8.0mph /  12.9km/h 17.0mph /  27.4km/h 77% 0.00in /  0mm
22:59 44.5 °F /  6.9 °C 37.7 °F /  3.2 °C 29.72in /  1006.3hPa ENE 8.0mph /  12.9km/h 17.0mph /  27.4km/h 77% 0.00in /  0mm
23:04 44.5 °F /  6.9 °C 37.7 °F /  3.2 °C 29.72in /  1006.3hPa East 9.0mph /  14.5km/h 17.0mph /  27.4km/h 77% 0.00in /  0mm
23:09 44.4 °F /  6.9 °C 37.6 °F /  3.1 °C 29.71in /  1006hPa ENE 8.0mph /  12.9km/h 16.0mph /  25.7km/h 77% 0.00in /  0mm
23:14 44.3 °F /  6.8 °C 37.5 °F /  3.1 °C 29.71in /  1006hPa East 11.0mph /  17.7km/h 14.0mph /  22.5km/h 77% 0.00in /  0mm
23:19 44.2 °F /  6.8 °C 37.8 °F /  3.2 °C 29.70in /  1005.6hPa ESE 7.0mph /  11.3km/h 15.0mph /  24.1km/h 78% 0.00in /  0mm
23:24 44.0 °F /  6.7 °C 37.6 °F /  3.1 °C 29.70in /  1005.6hPa East 6.0mph /  9.7km/h 16.0mph /  25.7km/h 78% 0.00in /  0mm
23:29 43.8 °F /  6.6 °C 37.4 °F /  3 °C 29.69in /  1005.3hPa ENE 8.0mph /  12.9km/h 16.0mph /  25.7km/h 78% 0.00in /  0mm
23:34 43.6 °F /  6.4 °C 37.2 °F /  2.9 °C 29.69in /  1005.3hPa ENE 8.0mph /  12.9km/h 16.0mph /  25.7km/h 78% 0.00in /  0mm
23:39 43.5 °F /  6.4 °C 37.4 °F /  3 °C 29.69in /  1005.3hPa ENE 8.0mph /  12.9km/h 16.0mph /  25.7km/h 79% 0.00in /  0mm
23:44 43.5 °F /  6.4 °C 37.4 °F /  3 °C 29.68in /  1005hPa ENE 8.0mph /  12.9km/h 16.0mph /  25.7km/h 79% 0.00in /  0mm
23:49 43.3 °F /  6.3 °C 37.2 °F /  2.9 °C 29.67in /  1004.6hPa ENE 4.0mph /  6.4km/h 15.0mph /  24.1km/h 79% 0.00in /  0mm
23:54 43.2 °F /  6.2 °C 37.1 °F /  2.8 °C 29.67in /  1004.6hPa NE 4.0mph /  6.4km/h 16.0mph /  25.7km/h 79% 0.00in /  0mm
23:59 43.2 °F /  6.2 °C 37.1 °F /  2.8 °C 29.67in /  1004.6hPa NE 9.0mph /  14.5km/h 16.0mph /  25.7km/h 79% 0.00in /  0mm
Buffalo, New York, USA
Compliments of Weather Underground - 2.5 mb